To NAV CANADA Home Page Login to a new session Search on AWWS site Feedback and Comments Disclaimer Vers la page française équivalente Tips FAQ What's new on the site To the Forecasts and Observations / NOTAM section To "File a Flight Plan" website Publications and other links Update of the User's profile FIC Telephone Numbers My Weather Data Folder Route Weather Data Regional Weather Data Local Weather Data To the Forecasts and Observations / NOTAM section
Request Generated 05/27/2016 at 18:04:08 UTC . Weather information available at that time is displayed.

METAR/TAF

HAMILTON/ON    

METAR CYHM 271800Z 18014G21KT 15SM SCT040 BKN052 28/20 A2999 RMK
CU3NS2 SLP154 DENSITY ALT 2300FT=
METAR CYHM 271700Z 21014KT 15SM SCT042 BKN050 BKN057 28/19 A2999 RMK
CU3SC2SC1 SLP154 DENSITY ALT 2300FT=
METAR CYHM 271600Z 22010KT 200V270 15SM SCT042 BKN250 26/19 A2998 RMK
CU4CI1 SLP151 DENSITY ALT 2100FT=

TAF CYHM 271743Z 2718/2818 22012KT P6SM BKN050 PROB30 2719/2723 2SM
TSRA BR BKN040CB
FM280100 23006KT P6SM FEW050 SCT180
BECMG 2811/2813 18006KT
BECMG 2816/2818 20011KT
RMK NXT FCST BY 280000Z=
Your time UTC time
Weather data provided by Environment Canada and NAV CANADA